sensor_id;sensor_type;location;lat;lon;timestamp;pressure;altitude;pressure_sealevel;temperature;humidity
11710;BME280;5911;51.036;6.972;2023-02-14T00:01:52;102665.47;;;8.35;100.00
11710;BME280;5911;51.036;6.972;2023-02-14T00:04:20;102659.41;;;8.33;100.00
11710;BME280;5911;51.036;6.972;2023-02-14T00:06:48;102666.47;;;8.31;100.00
11710;BME280;5911;51.036;6.972;2023-02-14T00:09:17;102663.03;;;8.29;100.00
11710;BME280;5911;51.036;6.972;2023-02-14T00:11:47;102664.06;;;8.25;100.00
11710;BME280;5911;51.036;6.972;2023-02-14T00:14:15;102664.16;;;8.24;100.00
11710;BME280;5911;51.036;6.972;2023-02-14T00:17:00;102651.41;;;8.13;100.00
11710;BME280;5911;51.036;6.972;2023-02-14T00:19:28;102657.47;;;8.15;100.00
11710;BME280;5911;51.036;6.972;2023-02-14T00:21:57;102671.25;;;8.22;100.00
11710;BME280;5911;51.036;6.972;2023-02-14T00:24:27;102668.66;;;8.20;100.00
11710;BME280;5911;51.036;6.972;2023-02-14T00:26:57;102663.53;;;8.17;100.00
11710;BME280;5911;51.036;6.972;2023-02-14T00:29:27;102659.13;;;8.18;100.00
11710;BME280;5911;51.036;6.972;2023-02-14T00:31:58;102634.06;;;8.09;100.00
11710;BME280;5911;51.036;6.972;2023-02-14T00:34:27;102659.88;;;8.21;100.00
11710;BME280;5911;51.036;6.972;2023-02-14T00:36:57;102660.94;;;8.16;100.00
11710;BME280;5911;51.036;6.972;2023-02-14T00:39:26;102656.53;;;8.16;100.00
11710;BME280;5911;51.036;6.972;2023-02-14T00:41:53;102643.03;;;8.03;100.00
11710;BME280;5911;51.036;6.972;2023-02-14T00:44:22;102643.56;;;8.11;100.00
11710;BME280;5911;51.036;6.972;2023-02-14T00:46:50;102644.03;;;8.23;100.00
11710;BME280;5911;51.036;6.972;2023-02-14T00:49:18;102641.25;;;8.26;100.00
11710;BME280;5911;51.036;6.972;2023-02-14T00:51:46;102641.91;;;8.32;100.00
11710;BME280;5911;51.036;6.972;2023-02-14T00:54:14;102630.69;;;8.27;100.00
11710;BME280;5911;51.036;6.972;2023-02-14T00:56:41;102646.88;;;8.40;100.00
11710;BME280;5911;51.036;6.972;2023-02-14T00:59:09;102643.56;;;8.35;100.00
11710;BME280;5911;51.036;6.972;2023-02-14T01:01:38;102619.63;;;8.19;100.00
11710;BME280;5911;51.036;6.972;2023-02-14T01:04:08;102646.22;;;8.35;100.00
11710;BME280;5911;51.036;6.972;2023-02-14T01:06:37;102639.28;;;8.32;100.00
11710;BME280;5911;51.036;6.972;2023-02-14T01:09:05;102635.03;;;8.28;100.00
11710;BME280;5911;51.036;6.972;2023-02-14T01:11:33;102640.53;;;8.22;100.00
11710;BME280;5911;51.036;6.972;2023-02-14T01:14:01;102640.78;;;8.16;100.00
11710;BME280;5911;51.036;6.972;2023-02-14T01:16:29;102640.22;;;8.08;100.00
11710;BME280;5911;51.036;6.972;2023-02-14T01:18:59;102642.06;;;8.06;100.00
11710;BME280;5911;51.036;6.972;2023-02-14T01:21:29;102634.16;;;8.06;100.00
11710;BME280;5911;51.036;6.972;2023-02-14T01:23:59;102636.91;;;8.03;100.00
11710;BME280;5911;51.036;6.972;2023-02-14T01:26:28;102619.84;;;7.91;100.00
11710;BME280;5911;51.036;6.972;2023-02-14T01:28:59;102623.28;;;7.93;100.00
11710;BME280;5911;51.036;6.972;2023-02-14T01:31:30;102636.22;;;7.98;100.00
11710;BME280;5911;51.036;6.972;2023-02-14T01:34:00;102632.03;;;7.94;100.00
11710;BME280;5911;51.036;6.972;2023-02-14T01:36:30;102633.69;;;7.95;100.00
11710;BME280;5911;51.036;6.972;2023-02-14T01:39:00;102635.66;;;7.90;100.00
11710;BME280;5911;51.036;6.972;2023-02-14T01:41:30;102625.00;;;7.94;100.00
11710;BME280;5911;51.036;6.972;2023-02-14T01:44:00;102626.69;;;7.95;100.00
11710;BME280;5911;51.036;6.972;2023-02-14T01:46:30;102633.16;;;7.87;100.00
11710;BME280;5911;51.036;6.972;2023-02-14T01:49:02;102637.56;;;7.86;100.00
11710;BME280;5911;51.036;6.972;2023-02-14T01:51:31;102623.91;;;7.76;100.00
11710;BME280;5911;51.036;6.972;2023-02-14T01:54:02;102636.00;;;7.81;100.00
11710;BME280;5911;51.036;6.972;2023-02-14T01:56:33;102644.13;;;7.74;100.00
11710;BME280;5911;51.036;6.972;2023-02-14T01:59:04;102629.38;;;7.70;100.00
11710;BME280;5911;51.036;6.972;2023-02-14T02:01:34;102638.44;;;7.63;100.00
11710;BME280;5911;51.036;6.972;2023-02-14T02:04:07;102628.94;;;7.59;100.00
11710;BME280;5911;51.036;6.972;2023-02-14T02:06:38;102635.19;;;7.55;100.00
11710;BME280;5911;51.036;6.972;2023-02-14T02:09:12;102629.31;;;7.49;100.00
11710;BME280;5911;51.036;6.972;2023-02-14T02:11:41;102627.44;;;7.52;100.00
11710;BME280;5911;51.036;6.972;2023-02-14T02:14:13;102631.88;;;7.50;100.00
11710;BME280;5911;51.036;6.972;2023-02-14T02:17:08;102631.03;;;7.50;100.00
11710;BME280;5911;51.036;6.972;2023-02-14T02:20:05;102621.03;;;7.36;100.00
11710;BME280;5911;51.036;6.972;2023-02-14T02:23:08;102619.19;;;7.38;100.00
11710;BME280;5911;51.036;6.972;2023-02-14T02:25:53;102622.63;;;7.40;100.00
11710;BME280;5911;51.036;6.972;2023-02-14T02:28:46;102617.38;;;7.40;100.00
11710;BME280;5911;51.036;6.972;2023-02-14T02:31:52;102615.66;;;7.39;100.00
11710;BME280;5911;51.036;6.972;2023-02-14T02:35:15;102616.69;;;7.35;100.00
11710;BME280;5911;51.036;6.972;2023-02-14T02:37:59;102606.41;;;7.29;100.00
11710;BME280;5911;51.036;6.972;2023-02-14T02:40:43;102612.78;;;7.22;100.00
11710;BME280;5911;51.036;6.972;2023-02-14T02:43:28;102613.38;;;7.30;100.00
11710;BME280;5911;51.036;6.972;2023-02-14T02:46:02;102610.88;;;7.27;100.00
11710;BME280;5911;51.036;6.972;2023-02-14T02:48:55;102614.44;;;7.24;100.00
11710;BME280;5911;51.036;6.972;2023-02-14T02:51:31;102622.47;;;7.20;100.00
11710;BME280;5911;51.036;6.972;2023-02-14T02:54:22;102608.34;;;7.24;100.00
11710;BME280;5911;51.036;6.972;2023-02-14T02:56:56;102623.28;;;7.22;100.00
11710;BME280;5911;51.036;6.972;2023-02-14T02:59:28;102616.31;;;7.21;100.00
11710;BME280;5911;51.036;6.972;2023-02-14T03:02:02;102620.84;;;7.17;100.00
11710;BME280;5911;51.036;6.972;2023-02-14T03:04:33;102624.31;;;7.18;100.00
11710;BME280;5911;51.036;6.972;2023-02-14T03:07:23;102624.44;;;7.15;100.00
11710;BME280;5911;51.036;6.972;2023-02-14T03:10:12;102619.28;;;7.12;100.00
11710;BME280;5911;51.036;6.972;2023-02-14T03:16:34;102626.25;;;7.13;100.00
11710;BME280;5911;51.036;6.972;2023-02-14T03:19:25;102614.06;;;7.10;100.00
11710;BME280;5911;51.036;6.972;2023-02-14T03:22:01;102619.19;;;7.15;100.00
11710;BME280;5911;51.036;6.972;2023-02-14T03:24:39;102629.78;;;7.12;100.00
11710;BME280;5911;51.036;6.972;2023-02-14T03:27:34;102624.38;;;7.16;100.00
11710;BME280;5911;51.036;6.972;2023-02-14T03:30:10;102614.84;;;7.14;100.00
11710;BME280;5911;51.036;6.972;2023-02-14T03:32:45;102620.91;;;7.16;100.00
11710;BME280;5911;51.036;6.972;2023-02-14T03:35:19;102618.31;;;7.14;100.00
11710;BME280;5911;51.036;6.972;2023-02-14T03:37:54;102624.44;;;7.15;100.00
11710;BME280;5911;51.036;6.972;2023-02-14T03:40:29;102626.19;;;7.14;100.00
11710;BME280;5911;51.036;6.972;2023-02-14T03:43:01;102620.84;;;7.17;100.00
11710;BME280;5911;51.036;6.972;2023-02-14T03:45:33;102627.06;;;7.15;100.00
11710;BME280;5911;51.036;6.972;2023-02-14T03:48:05;102621.03;;;7.11;100.00
11710;BME280;5911;51.036;6.972;2023-02-14T03:50:35;102628.09;;;7.09;100.00
11710;BME280;5911;51.036;6.972;2023-02-14T03:53:07;102617.63;;;7.09;100.00
11710;BME280;5911;51.036;6.972;2023-02-14T03:55:42;102619.47;;;7.05;100.00
11710;BME280;5911;51.036;6.972;2023-02-14T03:58:15;102616.00;;;7.05;100.00
11710;BME280;5911;51.036;6.972;2023-02-14T04:00:47;102601.97;;;7.06;100.00
11710;BME280;5911;51.036;6.972;2023-02-14T04:03:17;102616.00;;;7.05;100.00
11710;BME280;5911;51.036;6.972;2023-02-14T04:05:46;102597.91;;;6.97;100.00
11710;BME280;5911;51.036;6.972;2023-02-14T04:08:22;102617.72;;;7.06;100.00
11710;BME280;5911;51.036;6.972;2023-02-14T04:10:52;102616.84;;;7.05;100.00
11710;BME280;5911;51.036;6.972;2023-02-14T04:13:21;102614.19;;;7.07;100.00
11710;BME280;5911;51.036;6.972;2023-02-14T04:15:48;102612.47;;;7.06;100.00
11710;BME280;5911;51.036;6.972;2023-02-14T04:18:16;102617.41;;;7.15;100.00
11710;BME280;5911;51.036;6.972;2023-02-14T04:21:01;102613.22;;;7.10;100.00
11710;BME280;5911;51.036;6.972;2023-02-14T04:23:29;102607.88;;;7.13;100.00
11710;BME280;5911;51.036;6.972;2023-02-14T04:25:58;102598.91;;;7.18;100.00
11710;BME280;5911;51.036;6.972;2023-02-14T04:28:26;102608.50;;;7.19;100.00
11710;BME280;5911;51.036;6.972;2023-02-14T04:30:54;102617.28;;;7.18;100.00
11710;BME280;5911;51.036;6.972;2023-02-14T04:33:22;102615.78;;;7.11;100.00
11710;BME280;5911;51.036;6.972;2023-02-14T04:35:50;102608.97;;;7.05;100.00
11710;BME280;5911;51.036;6.972;2023-02-14T04:38:17;102611.66;;;7.04;100.00
11710;BME280;5911;51.036;6.972;2023-02-14T04:40:47;102610.69;;;7.06;100.00
11710;BME280;5911;51.036;6.972;2023-02-14T04:43:16;102606.25;;;7.09;100.00
11710;BME280;5911;51.036;6.972;2023-02-14T04:45:46;102607.25;;;7.04;100.00
11710;BME280;5911;51.036;6.972;2023-02-14T04:48:14;102602.16;;;7.01;100.00
11710;BME280;5911;51.036;6.972;2023-02-14T04:50:41;102610.38;;;6.91;100.00
11710;BME280;5911;51.036;6.972;2023-02-14T04:53:09;102605.44;;;6.82;100.00
11710;BME280;5911;51.036;6.972;2023-02-14T04:55:37;102596.81;;;6.78;100.00
11710;BME280;5911;51.036;6.972;2023-02-14T04:58:05;102600.31;;;6.79;100.00
11710;BME280;5911;51.036;6.972;2023-02-14T05:00:34;102593.38;;;6.76;100.00
11710;BME280;5911;51.036;6.972;2023-02-14T05:03:02;102592.63;;;6.72;100.00
11710;BME280;5911;51.036;6.972;2023-02-14T05:05:30;102584.84;;;6.71;100.00
11710;BME280;5911;51.036;6.972;2023-02-14T05:07:57;102589.22;;;6.70;100.00
11710;BME280;5911;51.036;6.972;2023-02-14T05:10:25;102605.91;;;6.68;100.00
11710;BME280;5911;51.036;6.972;2023-02-14T05:12:54;102590.28;;;6.65;100.00
11710;BME280;5911;51.036;6.972;2023-02-14T05:15:22;102589.56;;;6.60;100.00
11710;BME280;5911;51.036;6.972;2023-02-14T05:17:51;102586.84;;;6.63;100.00
11710;BME280;5911;51.036;6.972;2023-02-14T05:20:19;102579.88;;;6.62;100.00
11710;BME280;5911;51.036;6.972;2023-02-14T05:22:47;102585.09;;;6.63;100.00
11710;BME280;5911;51.036;6.972;2023-02-14T05:25:15;102581.31;;;6.72;100.00
11710;BME280;5911;51.036;6.972;2023-02-14T05:27:45;102578.75;;;6.70;100.00
11710;BME280;5911;51.036;6.972;2023-02-14T05:32:57;102563.19;;;6.64;100.00
11710;BME280;5911;51.036;6.972;2023-02-14T05:35:25;102567.34;;;6.72;100.00
11710;BME280;5911;51.036;6.972;2023-02-14T05:38:02;102561.44;;;6.65;100.00
11710;BME280;5911;51.036;6.972;2023-02-14T05:40:44;102558.63;;;6.71;100.00
11710;BME280;5911;51.036;6.972;2023-02-14T05:43:12;102564.78;;;6.70;100.00
11710;BME280;5911;51.036;6.972;2023-02-14T05:45:46;102565.59;;;6.72;100.00
11710;BME280;5911;51.036;6.972;2023-02-14T05:48:16;102537.94;;;6.62;100.00
11710;BME280;5911;51.036;6.972;2023-02-14T05:50:44;102564.25;;;6.85;100.00
11710;BME280;5911;51.036;6.972;2023-02-14T05:53:14;102563.19;;;6.89;100.00
11710;BME280;5911;51.036;6.972;2023-02-14T05:55:42;102562.25;;;6.92;100.00
11710;BME280;5911;51.036;6.972;2023-02-14T05:58:10;102564.81;;;6.93;100.00
11710;BME280;5911;51.036;6.972;2023-02-14T06:00:38;102569.16;;;6.94;100.00
11710;BME280;5911;51.036;6.972;2023-02-14T06:03:07;102576.16;;;6.94;100.00
11710;BME280;5911;51.036;6.972;2023-02-14T06:05:36;102569.22;;;6.93;100.00
11710;BME280;5911;51.036;6.972;2023-02-14T06:08:04;102571.03;;;6.91;100.00
11710;BME280;5911;51.036;6.972;2023-02-14T06:10:32;102575.53;;;6.87;100.00
11710;BME280;5911;51.036;6.972;2023-02-14T06:12:59;102571.88;;;6.91;100.00
11710;BME280;5911;51.036;6.972;2023-02-14T06:15:27;102572.63;;;6.95;100.00
11710;BME280;5911;51.036;6.972;2023-02-14T06:17:56;102573.50;;;6.95;100.00
11710;BME280;5911;51.036;6.972;2023-02-14T06:20:24;102576.81;;;7.00;100.00
11710;BME280;5911;51.036;6.972;2023-02-14T06:22:54;102578.41;;;7.04;100.00
11710;BME280;5911;51.036;6.972;2023-02-14T06:25:23;102582.88;;;7.02;100.00
11710;BME280;5911;51.036;6.972;2023-02-14T06:27:54;102582.94;;;7.01;100.00
11710;BME280;5911;51.036;6.972;2023-02-14T06:30:23;102587.31;;;7.00;100.00
11710;BME280;5911;51.036;6.972;2023-02-14T06:32:51;102583.66;;;7.04;100.00
11710;BME280;5911;51.036;6.972;2023-02-14T06:35:19;102592.66;;;6.97;100.00
11710;BME280;5911;51.036;6.972;2023-02-14T06:37:47;102569.63;;;6.81;100.00
11710;BME280;5911;51.036;6.972;2023-02-14T06:40:16;102583.59;;;6.81;100.00
11710;BME280;5911;51.036;6.972;2023-02-14T06:42:45;102588.72;;;6.86;100.00
11710;BME280;5911;51.036;6.972;2023-02-14T06:45:13;102593.09;;;6.85;100.00
11710;BME280;5911;51.036;6.972;2023-02-14T06:47:40;102593.94;;;6.86;100.00
11710;BME280;5911;51.036;6.972;2023-02-14T06:50:09;102592.28;;;6.83;100.00
11710;BME280;5911;51.036;6.972;2023-02-14T06:52:38;102596.56;;;6.86;100.00
11710;BME280;5911;51.036;6.972;2023-02-14T06:55:07;102600.09;;;6.85;100.00
11710;BME280;5911;51.036;6.972;2023-02-14T06:57:38;102594.09;;;6.81;100.00
11710;BME280;5911;51.036;6.972;2023-02-14T07:00:07;102591.56;;;6.78;100.00
11710;BME280;5911;51.036;6.972;2023-02-14T07:02:35;102598.44;;;6.82;100.00
11710;BME280;5911;51.036;6.972;2023-02-14T07:05:04;102597.72;;;6.77;100.00
11710;BME280;5911;51.036;6.972;2023-02-14T07:07:31;102592.47;;;6.77;100.00
11710;BME280;5911;51.036;6.972;2023-02-14T07:09:59;102596.88;;;6.77;100.00
11710;BME280;5911;51.036;6.972;2023-02-14T07:12:27;102600.34;;;6.77;100.00
11710;BME280;5911;51.036;6.972;2023-02-14T07:14:56;102597.69;;;6.79;100.00
11710;BME280;5911;51.036;6.972;2023-02-14T07:17:24;102593.50;;;6.73;100.00
11710;BME280;5911;51.036;6.972;2023-02-14T07:19:51;102588.94;;;6.78;100.00
11710;BME280;5911;51.036;6.972;2023-02-14T07:22:19;102598.63;;;6.76;100.00
11710;BME280;5911;51.036;6.972;2023-02-14T07:24:47;102602.81;;;6.82;100.00
11710;BME280;5911;51.036;6.972;2023-02-14T07:27:15;102597.47;;;6.85;100.00
11710;BME280;5911;51.036;6.972;2023-02-14T07:29:43;102600.91;;;6.87;100.00
11710;BME280;5911;51.036;6.972;2023-02-14T07:32:12;102598.22;;;6.88;100.00
11710;BME280;5911;51.036;6.972;2023-02-14T07:34:39;102602.78;;;6.83;100.00
11710;BME280;5911;51.036;6.972;2023-02-14T07:37:07;102591.44;;;6.83;100.00
11710;BME280;5911;51.036;6.972;2023-02-14T07:39:35;102594.81;;;6.86;100.00
11710;BME280;5911;51.036;6.972;2023-02-14T07:42:03;102601.66;;;6.90;100.00
11710;BME280;5911;51.036;6.972;2023-02-14T07:44:31;102597.16;;;6.94;100.00
11710;BME280;5911;51.036;6.972;2023-02-14T07:46:59;102595.78;;;6.84;100.00
11710;BME280;5911;51.036;6.972;2023-02-14T07:49:28;102592.88;;;6.91;100.00
11710;BME280;5911;51.036;6.972;2023-02-14T07:51:55;102596.19;;;6.96;100.00
11710;BME280;5911;51.036;6.972;2023-02-14T07:54:23;102598.09;;;6.91;100.00
11710;BME280;5911;51.036;6.972;2023-02-14T07:56:51;102598.09;;;6.91;100.00
11710;BME280;5911;51.036;6.972;2023-02-14T07:59:19;102596.25;;;6.95;100.00
11710;BME280;5911;51.036;6.972;2023-02-14T08:01:48;102581.69;;;6.86;100.00
11710;BME280;5911;51.036;6.972;2023-02-14T08:04:16;102593.53;;;6.98;100.00
11710;BME280;5911;51.036;6.972;2023-02-14T08:06:45;102600.38;;;7.02;100.00
11710;BME280;5911;51.036;6.972;2023-02-14T08:09:13;102588.00;;;7.05;100.00
11710;BME280;5911;51.036;6.972;2023-02-14T08:11:50;102587.75;;;7.13;100.00
11710;BME280;5911;51.036;6.972;2023-02-14T08:14:35;102591.38;;;7.09;100.00
11710;BME280;5911;51.036;6.972;2023-02-14T08:17:04;102597.31;;;7.14;100.00
11710;BME280;5911;51.036;6.972;2023-02-14T08:19:32;102592.75;;;7.19;100.00
11710;BME280;5911;51.036;6.972;2023-02-14T08:22:02;102597.03;;;7.22;100.00
11710;BME280;5911;51.036;6.972;2023-02-14T08:24:30;102592.44;;;7.28;100.00
11710;BME280;5911;51.036;6.972;2023-02-14T08:26:58;102591.47;;;7.31;100.00
11710;BME280;5911;51.036;6.972;2023-02-14T08:29:26;102554.75;;;7.06;100.00
11710;BME280;5911;51.036;6.972;2023-02-14T08:31:54;102605.31;;;7.34;100.00
11710;BME280;5911;51.036;6.972;2023-02-14T08:34:25;102597.28;;;7.39;100.00
11710;BME280;5911;51.036;6.972;2023-02-14T08:36:53;102605.16;;;7.39;100.00
11710;BME280;5911;51.036;6.972;2023-02-14T08:39:23;102593.66;;;7.43;100.00
11710;BME280;5911;51.036;6.972;2023-02-14T08:41:51;102590.00;;;7.47;100.00
11710;BME280;5911;51.036;6.972;2023-02-14T08:44:18;102599.59;;;7.48;100.00
11710;BME280;5911;51.036;6.972;2023-02-14T08:46:47;102590.66;;;7.52;100.00
11710;BME280;5911;51.036;6.972;2023-02-14T08:49:15;102595.00;;;7.53;100.00
11710;BME280;5911;51.036;6.972;2023-02-14T08:51:42;102597.53;;;7.56;100.00
11710;BME280;5911;51.036;6.972;2023-02-14T08:54:10;102595.00;;;7.53;100.00
11710;BME280;5911;51.036;6.972;2023-02-14T08:56:39;102592.34;;;7.55;100.00
11710;BME280;5911;51.036;6.972;2023-02-14T08:59:07;102586.91;;;7.59;100.00
11710;BME280;5911;51.036;6.972;2023-02-14T09:01:35;102596.31;;;7.65;100.00
11710;BME280;5911;51.036;6.972;2023-02-14T09:04:03;102590.91;;;7.69;100.00
11710;BME280;5911;51.036;6.972;2023-02-14T09:06:31;102586.44;;;7.71;100.00
11710;BME280;5911;51.036;6.972;2023-02-14T09:08:59;102587.38;;;7.70;100.00
11710;BME280;5911;51.036;6.972;2023-02-14T09:11:28;102593.06;;;7.82;100.00
11710;BME280;5911;51.036;6.972;2023-02-14T09:13:57;102585.97;;;7.84;100.00
11710;BME280;5911;51.036;6.972;2023-02-14T09:16:25;102582.44;;;7.85;100.00
11710;BME280;5911;51.036;6.972;2023-02-14T09:18:53;102585.63;;;7.93;100.00
11710;BME280;5911;51.036;6.972;2023-02-14T09:21:23;102558.84;;;7.83;100.00
11710;BME280;5911;51.036;6.972;2023-02-14T09:23:52;102574.75;;;8.02;100.00
11710;BME280;5911;51.036;6.972;2023-02-14T09:26:20;102584.25;;;8.06;100.00
11710;BME280;5911;51.036;6.972;2023-02-14T09:28:48;102578.78;;;8.10;100.00
11710;BME280;5911;51.036;6.972;2023-02-14T09:31:19;102569.00;;;8.14;100.00
11710;BME280;5911;51.036;6.972;2023-02-14T09:33:48;102568.78;;;8.20;100.00
11710;BME280;5911;51.036;6.972;2023-02-14T09:36:34;102567.75;;;8.24;100.00
11710;BME280;5911;51.036;6.972;2023-02-14T09:39:02;102568.50;;;8.26;100.00
11710;BME280;5911;51.036;6.972;2023-02-14T09:41:55;102570.63;;;8.40;100.00
11710;BME280;5911;51.036;6.972;2023-02-14T09:44:30;102576.47;;;8.46;100.00
11710;BME280;5911;51.036;6.972;2023-02-14T09:47:06;102567.44;;;8.54;100.00
11710;BME280;5911;51.036;6.972;2023-02-14T09:49:39;102564.34;;;8.64;100.00
11710;BME280;5911;51.036;6.972;2023-02-14T09:52:12;102565.72;;;8.73;100.00
11710;BME280;5911;51.036;6.972;2023-02-14T09:54:45;102559.78;;;8.88;100.00
11710;BME280;5911;51.036;6.972;2023-02-14T09:57:22;102571.31;;;9.06;100.00
11710;BME280;5911;51.036;6.972;2023-02-14T09:59:56;102552.00;;;9.26;100.00
11710;BME280;5911;51.036;6.972;2023-02-14T10:02:38;102561.72;;;9.44;100.00
11710;BME280;5911;51.036;6.972;2023-02-14T10:05:12;102561.28;;;9.53;100.00
11710;BME280;5911;51.036;6.972;2023-02-14T10:07:57;102557.00;;;9.69;98.90
11710;BME280;5911;51.036;6.972;2023-02-14T10:10:30;102560.06;;;9.79;98.88
11710;BME280;5911;51.036;6.972;2023-02-14T10:13:04;102558.47;;;9.94;97.75
11710;BME280;5911;51.036;6.972;2023-02-14T10:15:38;102567.22;;;10.13;98.32
11710;BME280;5911;51.036;6.972;2023-02-14T10:18:11;102557.97;;;10.23;95.54
11710;BME280;5911;51.036;6.972;2023-02-14T10:20:42;102563.25;;;10.40;95.25
11710;BME280;5911;51.036;6.972;2023-02-14T10:23:21;102556.75;;;10.47;91.50
11710;BME280;5911;51.036;6.972;2023-02-14T10:25:56;102566.53;;;10.63;92.12
11710;BME280;5911;51.036;6.972;2023-02-14T10:28:30;102560.63;;;10.75;89.86
11710;BME280;5911;51.036;6.972;2023-02-14T10:31:13;102561.41;;;10.94;90.45
11710;BME280;5911;51.036;6.972;2023-02-14T10:33:50;102548.13;;;10.96;89.60
11710;BME280;5911;51.036;6.972;2023-02-14T10:36:33;102556.69;;;11.16;88.84
11710;BME280;5911;51.036;6.972;2023-02-14T10:39:10;102547.34;;;11.26;88.40
11710;BME280;5911;51.036;6.972;2023-02-14T10:41:49;102553.69;;;11.40;86.05
11710;BME280;5911;51.036;6.972;2023-02-14T10:44:35;102544.94;;;11.55;84.12
11710;BME280;5911;51.036;6.972;2023-02-14T10:47:16;102550.88;;;11.76;85.60
11710;BME280;5911;51.036;6.972;2023-02-14T10:49:54;102549.66;;;11.81;79.73
11710;BME280;5911;51.036;6.972;2023-02-14T10:52:27;102546.75;;;12.02;84.93
11710;BME280;5911;51.036;6.972;2023-02-14T10:54:59;102547.41;;;12.21;82.30
11710;BME280;5911;51.036;6.972;2023-02-14T10:57:30;102540.88;;;12.26;77.23
11710;BME280;5911;51.036;6.972;2023-02-14T11:00:03;102531.88;;;12.45;77.76
11710;BME280;5911;51.036;6.972;2023-02-14T11:02:35;102536.19;;;12.61;77.63
11710;BME280;5911;51.036;6.972;2023-02-14T11:05:05;102527.41;;;12.75;72.23
11710;BME280;5911;51.036;6.972;2023-02-14T11:07:34;102522.63;;;12.96;72.63
11710;BME280;5911;51.036;6.972;2023-02-14T11:10:01;102525.78;;;13.17;69.31
11710;BME280;5911;51.036;6.972;2023-02-14T11:12:34;102518.00;;;13.42;71.76
11710;BME280;5911;51.036;6.972;2023-02-14T11:15:21;102516.91;;;13.73;68.38
11710;BME280;5911;51.036;6.972;2023-02-14T11:18:08;102518.66;;;13.87;68.36
11710;BME280;5911;51.036;6.972;2023-02-14T11:20:38;102512.16;;;14.05;67.90
11710;BME280;5911;51.036;6.972;2023-02-14T11:23:19;102502.63;;;14.15;66.75
11710;BME280;5911;51.036;6.972;2023-02-14T11:25:50;102503.06;;;14.22;64.71
11710;BME280;5911;51.036;6.972;2023-02-14T11:28:19;102507.16;;;14.40;64.94
11710;BME280;5911;51.036;6.972;2023-02-14T11:30:48;102504.66;;;14.51;62.81
11710;BME280;5911;51.036;6.972;2023-02-14T11:33:32;102509.97;;;14.51;62.23
11710;BME280;5911;51.036;6.972;2023-02-14T11:36:05;102504.47;;;14.27;63.16
11710;BME280;5911;51.036;6.972;2023-02-14T11:38:37;102504.50;;;14.00;65.06
11710;BME280;5911;51.036;6.972;2023-02-14T11:41:07;102495.75;;;13.86;64.99
11710;BME280;5911;51.036;6.972;2023-02-14T11:43:37;102474.75;;;13.95;64.42
11710;BME280;5911;51.036;6.972;2023-02-14T11:46:12;102480.88;;;13.83;64.63
11710;BME280;5911;51.036;6.972;2023-02-14T11:48:55;102499.00;;;14.03;63.86
11710;BME280;5911;51.036;6.972;2023-02-14T11:51:30;102497.50;;;13.99;65.61
11710;BME280;5911;51.036;6.972;2023-02-14T11:54:00;102485.88;;;13.88;63.90
11710;BME280;5911;51.036;6.972;2023-02-14T11:56:46;102476.38;;;13.71;64.40
11710;BME280;5911;51.036;6.972;2023-02-14T11:59:24;102477.31;;;13.70;65.10
11710;BME280;5911;51.036;6.972;2023-02-14T12:01:55;102461.59;;;13.67;63.77
11710;BME280;5911;51.036;6.972;2023-02-14T12:04:30;102467.88;;;14.05;64.37
11710;BME280;5911;51.036;6.972;2023-02-14T12:07:17;102462.59;;;14.45;61.13
11710;BME280;5911;51.036;6.972;2023-02-14T12:09:47;102457.88;;;14.36;61.29
11710;BME280;5911;51.036;6.972;2023-02-14T12:12:30;102454.94;;;14.53;62.31
11710;BME280;5911;51.036;6.972;2023-02-14T12:15:19;102443.75;;;14.99;62.23
11710;BME280;5911;51.036;6.972;2023-02-14T12:17:54;102445.34;;;15.01;60.22
11710;BME280;5911;51.036;6.972;2023-02-14T12:20:34;102374.78;;;14.85;59.09
11710;BME280;5911;51.036;6.972;2023-02-14T12:23:11;102435.88;;;15.10;59.92
11710;BME280;5911;51.036;6.972;2023-02-14T12:25:45;102429.63;;;14.86;60.13
11710;BME280;5911;51.036;6.972;2023-02-14T12:28:18;102425.63;;;14.80;60.56
11710;BME280;5911;51.036;6.972;2023-02-14T12:30:52;102427.97;;;14.59;58.78
11710;BME280;5911;51.036;6.972;2023-02-14T12:33:23;102421.75;;;14.84;59.90
11710;BME280;5911;51.036;6.972;2023-02-14T12:35:56;102418.97;;;14.98;59.21
11710;BME280;5911;51.036;6.972;2023-02-14T12:38:37;102420.03;;;15.08;58.27
11710;BME280;5911;51.036;6.972;2023-02-14T12:41:20;102413.88;;;15.08;58.67
11710;BME280;5911;51.036;6.972;2023-02-14T12:43:52;102408.69;;;14.94;59.96
11710;BME280;5911;51.036;6.972;2023-02-14T12:46:42;102393.53;;;14.70;60.04
11710;BME280;5911;51.036;6.972;2023-02-14T12:49:28;102403.38;;;14.94;58.62
11710;BME280;5911;51.036;6.972;2023-02-14T12:52:14;102396.28;;;14.82;57.91
11710;BME280;5911;51.036;6.972;2023-02-14T12:54:57;102396.72;;;14.75;59.96
11710;BME280;5911;51.036;6.972;2023-02-14T12:57:38;102393.00;;;14.78;58.41
11710;BME280;5911;51.036;6.972;2023-02-14T13:00:17;102388.84;;;14.74;57.82
11710;BME280;5911;51.036;6.972;2023-02-14T13:05:58;102377.69;;;14.56;58.72
11710;BME280;5911;51.036;6.972;2023-02-14T13:08:52;102362.91;;;14.27;59.03
11710;BME280;5911;51.036;6.972;2023-02-14T13:11:34;102376.72;;;14.32;61.75
11710;BME280;5911;51.036;6.972;2023-02-14T13:14:12;102363.78;;;14.15;59.94
11710;BME280;5911;51.036;6.972;2023-02-14T13:16:48;102347.84;;;14.15;61.36
11710;BME280;5911;51.036;6.972;2023-02-14T13:19:30;102345.59;;;14.08;61.67
11710;BME280;5911;51.036;6.972;2023-02-14T13:22:00;102349.00;;;14.11;61.88
11710;BME280;5911;51.036;6.972;2023-02-14T13:24:31;102344.66;;;14.09;61.10
11710;BME280;5911;51.036;6.972;2023-02-14T13:27:06;102344.03;;;14.19;61.55
11710;BME280;5911;51.036;6.972;2023-02-14T13:29:42;102341.47;;;14.17;61.35
11710;BME280;5911;51.036;6.972;2023-02-14T13:32:14;102332.22;;;14.23;60.50
11710;BME280;5911;51.036;6.972;2023-02-14T13:34:49;102328.09;;;14.19;60.10
11710;BME280;5911;51.036;6.972;2023-02-14T13:37:22;102302.19;;;14.09;60.47
11710;BME280;5911;51.036;6.972;2023-02-14T13:39:55;102257.19;;;13.83;60.64